Time;durP1;ratioP1;P1;durP2;ratioP2;P2;SDS_P1;SDS_P2;PMS_P1;PMS_P2;Temp;Humidity;BMP_temperature;BMP_pressure;BME280_temperature;BME280_humidity;BME280_pressure;Samples;Min_cycle;Max_cycle;Signal;HPM_P1;HPM_P2
2023/06/18 00:00:53;;;;;;;22.30;20.50;;;;;;;19.42;56.37;99975.91;5023393;28;96767;-84
2023/06/18 00:03:19;;;;;;;23.23;21.17;;;;;;;19.47;56.33;99986.22;5007301;28;97385;-83
2023/06/18 00:05:45;;;;;;;23.55;21.20;;;;;;;19.45;56.47;99978.31;5024519;28;99013;-83
2023/06/18 00:08:10;;;;;;;22.73;20.98;;;;;;;19.41;56.43;99978.69;5023542;28;98612;-84
2023/06/18 00:10:36;;;;;;;23.48;21.60;;;;;;;19.36;56.36;99984.34;5031084;28;96724;-84
2023/06/18 00:13:01;;;;;;;23.10;21.20;;;;;;;19.36;56.22;99981.69;5024041;28;97078;-84
2023/06/18 00:15:27;;;;;;;22.50;20.60;;;;;;;19.31;56.27;99975.03;5014761;28;98738;-84
2023/06/18 00:17:52;;;;;;;22.30;20.48;;;;;;;19.32;56.17;99976.75;5014787;28;98290;-84
2023/06/18 00:20:18;;;;;;;23.27;21.45;;;;;;;19.23;56.23;99979.13;4998569;28;97264;-84
2023/06/18 00:22:44;;;;;;;23.00;21.00;;;;;;;19.20;56.18;99976.69;5021833;28;97744;-83
2023/06/18 00:25:09;;;;;;;23.65;21.65;;;;;;;19.19;56.36;99977.63;5019133;28;98714;-84
2023/06/18 00:27:35;;;;;;;23.38;21.40;;;;;;;19.20;56.34;99990.00;5022170;28;98226;-84
2023/06/18 00:30:03;;;;;;;23.27;21.52;;;;;;;19.16;56.38;99987.66;5015356;28;96761;-84
2023/06/18 00:32:30;;;;;;;22.77;21.00;;;;;;;19.09;56.35;99983.78;5014307;28;96789;-83
2023/06/18 00:34:56;;;;;;;23.50;21.58;;;;;;;19.09;56.65;99986.44;5005437;28;98775;-84
2023/06/18 00:37:25;;;;;;;22.95;21.00;;;;;;;19.07;56.57;99994.53;5013535;28;98490;-84
2023/06/18 00:39:51;;;;;;;22.27;20.58;;;;;;;19.02;56.84;99987.84;5026118;28;96873;-83
2023/06/18 00:42:16;;;;;;;22.98;21.40;;;;;;;18.99;56.48;99983.59;5023989;28;97284;-84
2023/06/18 00:44:42;;;;;;;22.23;20.42;;;;;;;18.97;56.59;99993.53;5005912;28;100702;-84
2023/06/18 00:47:11;;;;;;;23.17;21.15;;;;;;;18.96;56.64;99997.97;5026354;28;98656;-84
2023/06/18 00:49:37;;;;;;;21.50;19.52;;;;;;;18.93;56.84;100003.53;5020406;28;97219;-84
2023/06/18 00:52:03;;;;;;;21.88;20.27;;;;;;;18.92;56.85;99993.84;5017540;28;97180;-84
2023/06/18 00:54:31;;;;;;;23.42;21.67;;;;;;;18.91;56.84;99997.50;5003076;28;98821;-84
2023/06/18 00:56:59;;;;;;;23.90;21.67;;;;;;;18.81;57.05;99982.31;4998337;28;100186;-84
2023/06/18 00:59:27;;;;;;;23.63;21.50;;;;;;;18.75;57.29;99997.75;4980596;28;97142;-84
2023/06/18 01:01:54;;;;;;;23.50;21.13;;;;;;;18.71;57.06;99993.59;5003551;28;97049;-83
2023/06/18 01:04:22;;;;;;;22.80;20.73;;;;;;;18.69;57.49;99987.53;5000415;28;100693;-84
2023/06/18 01:06:52;;;;;;;22.67;20.88;;;;;;;18.71;57.21;99990.09;4995139;28;98582;-84
2023/06/18 01:09:21;;;;;;;22.92;20.80;;;;;;;18.63;57.41;99977.34;5029117;28;96886;-84
2023/06/18 01:11:51;;;;;;;22.25;20.55;;;;;;;18.68;56.98;99991.16;5015301;28;96801;-84
2023/06/18 01:14:27;;;;;;;22.95;21.15;;;;;;;18.61;57.12;99987.25;5004375;28;99065;-83
2023/06/18 01:16:58;;;;;;;22.40;20.55;;;;;;;18.64;57.38;99987.00;5031015;28;98762;-83
2023/06/18 01:19:43;;;;;;;23.60;21.42;;;;;;;18.64;57.37;99986.16;5026470;28;97271;-83
2023/06/18 01:22:37;;;;;;;23.88;21.85;;;;;;;18.64;57.29;99987.00;5025757;28;96874;-84
2023/06/18 01:25:07;;;;;;;23.98;21.67;;;;;;;18.60;57.26;99979.41;5000326;28;99096;-85
2023/06/18 01:27:40;;;;;;;23.65;21.60;;;;;;;18.58;57.28;99989.28;4998859;28;98673;-84
2023/06/18 01:30:07;;;;;;;23.30;21.42;;;;;;;18.58;57.24;99990.13;4988760;28;96959;-84
2023/06/18 01:32:33;;;;;;;24.35;21.90;;;;;;;18.57;57.55;99992.91;5012847;28;97093;-85
2023/06/18 01:35:01;;;;;;;23.73;21.90;;;;;;;18.54;57.38;99996.63;5003060;28;98851;-85
2023/06/18 01:37:43;;;;;;;24.15;21.98;;;;;;;18.54;57.20;99993.97;5024877;28;98891;-85
2023/06/18 01:40:18;;;;;;;24.60;22.23;;;;;;;18.53;57.17;100000.25;5012249;28;97081;-84
2023/06/18 01:42:54;;;;;;;24.67;22.50;;;;;;;18.46;57.09;99991.84;4994802;28;97562;-84
2023/06/18 01:45:36;;;;;;;24.38;21.95;;;;;;;18.34;57.47;99992.75;4995408;28;98667;-85
2023/06/18 01:48:06;;;;;;;23.83;21.83;;;;;;;18.31;57.64;100000.94;5013574;28;98519;-84
2023/06/18 01:50:34;;;;;;;24.27;22.40;;;;;;;18.30;57.81;99994.78;4999407;28;97143;-84
2023/06/18 01:53:02;;;;;;;24.90;22.77;;;;;;;18.31;57.60;99998.28;5000002;28;96897;-83
2023/06/18 01:55:28;;;;;;;23.63;21.73;;;;;;;18.29;57.55;100000.19;4984951;28;98882;-84
2023/06/18 01:57:55;;;;;;;23.55;21.65;;;;;;;18.30;57.47;100005.41;5003903;28;97705;-84
2023/06/18 02:00:21;;;;;;;24.58;22.30;;;;;;;18.27;57.81;100010.09;4995088;28;97222;-84
2023/06/18 02:02:49;;;;;;;24.90;22.67;;;;;;;18.25;57.55;100004.03;5026467;28;97343;-85
2023/06/18 02:05:14;;;;;;;24.40;22.23;;;;;;;18.23;58.00;100014.75;5009869;28;99440;-84
2023/06/18 02:07:40;;;;;;;24.40;21.92;;;;;;;18.23;57.83;100017.41;5000659;28;98960;-84
2023/06/18 02:10:06;;;;;;;24.50;22.42;;;;;;;18.24;57.51;100010.31;5031439;28;96689;-85
2023/06/18 02:12:31;;;;;;;24.60;22.67;;;;;;;18.22;57.65;100010.41;5026155;28;96831;-86
2023/06/18 02:14:58;;;;;;;24.83;22.35;;;;;;;18.19;58.05;100015.94;5012284;28;99048;-84
2023/06/18 02:17:23;;;;;;;24.92;22.73;;;;;;;18.19;57.60;100015.09;5014216;28;97804;-85
2023/06/18 02:19:51;;;;;;;24.67;22.38;;;;;;;18.16;57.84;100015.31;4996898;28;97539;-85
2023/06/18 02:22:16;;;;;;;24.33;22.30;;;;;;;18.05;57.95;99995.66;5000341;28;96950;-85
2023/06/18 02:24:44;;;;;;;25.65;23.15;;;;;;;18.14;57.88;100014.56;5016222;28;97675;-85
2023/06/18 02:27:09;;;;;;;24.58;22.52;;;;;;;18.08;57.73;100006.06;5022526;28;98314;-85
2023/06/18 02:29:35;;;;;;;25.85;23.30;;;;;;;18.05;58.01;100010.75;5018133;28;97407;-85
2023/06/18 02:32:02;;;;;;;24.92;22.83;;;;;;;18.08;57.64;100019.34;5006612;28;96875;-85
2023/06/18 02:34:29;;;;;;;23.92;22.02;;;;;;;18.06;58.14;100021.28;5004230;28;98889;-85
2023/06/18 02:36:55;;;;;;;24.40;22.30;;;;;;;17.99;57.89;100017.34;5023289;28;98601;-83
2023/06/18 02:39:21;;;;;;;24.67;22.67;;;;;;;18.01;58.20;100030.53;5013846;28;96756;-85
2023/06/18 02:41:46;;;;;;;23.73;21.52;;;;;;;17.97;58.03;100029.84;5026491;28;96786;-85
2023/06/18 02:44:12;;;;;;;24.35;22.10;;;;;;;17.98;57.93;100028.06;5004958;28;100973;-85
2023/06/18 02:46:38;;;;;;;23.60;21.55;;;;;;;17.98;58.07;100036.88;5027948;28;97565;-85
2023/06/18 02:49:03;;;;;;;23.92;21.83;;;;;;;17.99;58.08;100037.72;4993919;28;97376;-85
2023/06/18 02:51:29;;;;;;;24.10;22.30;;;;;;;17.98;58.32;100042.19;5025574;28;97188;-85
2023/06/18 02:53:54;;;;;;;23.90;21.70;;;;;;;17.97;58.30;100035.16;5007837;28;100983;-85
2023/06/18 02:56:21;;;;;;;23.17;21.05;;;;;;;17.93;58.29;100030.19;5024608;28;98872;-86
2023/06/18 02:58:51;;;;;;;23.77;21.80;;;;;;;17.94;58.00;100038.03;5031488;28;96726;-85
2023/06/18 03:01:19;;;;;;;22.92;21.05;;;;;;;17.93;57.90;100036.34;5013808;28;96872;-85
2023/06/18 03:03:45;;;;;;;23.65;21.75;;;;;;;17.93;57.94;100041.66;5024570;28;98859;-85
2023/06/18 03:06:10;;;;;;;23.88;21.92;;;;;;;17.88;58.16;100039.31;5004477;28;100117;-85
2023/06/18 03:08:36;;;;;;;23.98;21.92;;;;;;;17.93;57.97;100041.66;5026190;28;96667;-85
2023/06/18 03:11:02;;;;;;;23.45;21.73;;;;;;;17.88;58.05;100036.66;5030984;28;96914;-85
2023/06/18 03:13:30;;;;;;;23.98;22.02;;;;;;;17.92;57.79;100039.97;5012052;28;100413;-85
2023/06/18 03:15:57;;;;;;;23.98;21.85;;;;;;;17.94;57.88;100043.34;5013261;28;99984;-85
2023/06/18 03:18:24;;;;;;;23.42;21.20;;;;;;;17.97;58.14;100053.75;4996693;28;96723;-85
2023/06/18 03:20:50;;;;;;;22.63;20.88;;;;;;;17.95;57.86;100046.84;5003897;28;97570;-85
2023/06/18 03:23:17;;;;;;;21.85;20.25;;;;;;;17.97;57.97;100044.94;5012228;28;100650;-85
2023/06/18 03:25:47;;;;;;;22.55;20.85;;;;;;;17.97;58.30;100052.91;5005362;28;99968;-85
2023/06/18 03:28:29;;;;;;;22.75;20.85;;;;;;;17.86;58.35;100035.09;5012348;28;97251;-85
2023/06/18 03:30:55;;;;;;;22.73;20.80;;;;;;;17.92;58.22;100045.28;5031397;28;97101;-85
2023/06/18 03:33:21;;;;;;;22.00;20.30;;;;;;;17.95;58.06;100058.34;5029949;28;97744;-86
2023/06/18 03:35:47;;;;;;;24.13;21.85;;;;;;;17.96;58.23;100059.19;5030659;28;98783;-86
2023/06/18 03:38:13;;;;;;;22.27;20.48;;;;;;;17.96;58.20;100057.38;5010285;28;97271;-85
2023/06/18 03:40:40;;;;;;;22.27;20.50;;;;;;;17.93;57.89;100046.13;5013077;28;97042;-85
2023/06/18 03:43:07;;;;;;;22.70;20.98;;;;;;;17.99;58.01;100058.97;5007557;28;98753;-85
2023/06/18 03:45:32;;;;;;;22.17;20.02;;;;;;;17.94;58.20;100059.28;5012656;28;100080;-84
2023/06/18 03:47:58;;;;;;;20.83;19.23;;;;;;;17.95;58.03;100058.34;4999090;28;96993;-85
2023/06/18 03:50:26;;;;;;;20.98;19.08;;;;;;;17.94;57.99;100056.63;4979758;28;96886;-85
2023/06/18 03:52:52;;;;;;;23.08;21.27;;;;;;;17.97;58.27;100067.03;5015085;28;100295;-84
2023/06/18 03:55:18;;;;;;;22.70;20.80;;;;;;;17.95;58.25;100058.34;5014002;28;97450;-85
2023/06/18 03:57:43;;;;;;;20.92;19.30;;;;;;;17.93;58.18;100057.59;5002138;28;97329;-85
2023/06/18 04:00:10;;;;;;;22.70;20.95;;;;;;;18.04;57.93;100067.47;5018885;28;97457;-85
2023/06/18 04:02:38;;;;;;;22.60;20.70;;;;;;;18.10;57.76;100075.03;5021160;28;97349;-84
2023/06/18 04:05:09;;;;;;;20.75;18.85;;;;;;;18.28;57.32;100065.75;5012355;28;100256;-85
2023/06/18 04:07:35;;;;;;;20.63;19.13;;;;;;;18.49;56.88;100067.88;5003177;28;97140;-85
2023/06/18 04:10:00;;;;;;;21.90;19.77;;;;;;;18.62;56.60;100074.03;5029650;28;96827;-85
2023/06/18 04:12:27;;;;;;;22.92;21.10;;;;;;;18.74;56.39;100069.66;5005010;28;100407;-85
2023/06/18 04:14:52;;;;;;;21.85;20.10;;;;;;;18.87;55.98;100072.28;5030676;28;97807;-85
2023/06/18 04:17:18;;;;;;;23.17;21.10;;;;;;;18.93;56.07;100066.50;5029185;28;97136;-85
2023/06/18 04:19:43;;;;;;;23.75;21.90;;;;;;;19.03;55.71;100058.72;5030800;28;96786;-85
2023/06/18 04:22:09;;;;;;;22.30;20.42;;;;;;;19.13;55.42;100055.25;5014054;28;100523;-85
2023/06/18 04:24:37;;;;;;;22.63;20.75;;;;;;;19.25;55.34;100056.16;5002209;28;100276;-85
2023/06/18 04:27:03;;;;;;;23.38;21.05;;;;;;;19.35;55.08;100056.34;5027848;28;97219;-85
2023/06/18 04:29:31;;;;;;;22.90;20.95;;;;;;;19.47;54.90;100060.72;5012514;28;97032;-85
2023/06/18 04:31:57;;;;;;;23.98;21.65;;;;;;;19.60;54.57;100063.31;5011487;28;100737;-85
2023/06/18 04:34:23;;;;;;;23.95;21.42;;;;;;;19.75;54.44;100063.97;5012088;28;100677;-85
2023/06/18 04:36:49;;;;;;;24.17;22.25;;;;;;;19.85;54.25;100060.50;5029658;28;97598;-85
2023/06/18 04:39:14;;;;;;;23.75;21.38;;;;;;;19.99;54.00;100058.63;5019518;27;96867;-85
2023/06/18 04:41:41;;;;;;;23.63;21.60;;;;;;;20.09;54.00;100064.91;5030089;28;98998;-85
2023/06/18 04:44:06;;;;;;;25.92;21.80;;;;;;;20.19;53.61;100060.56;5028061;28;98640;-85
2023/06/18 04:46:33;;;;;;;27.00;21.95;;;;;;;20.31;53.35;100069.41;5029145;28;96798;-84
2023/06/18 04:49:00;;;;;;;24.27;21.73;;;;;;;20.40;53.51;100068.69;4997359;28;97610;-84
2023/06/18 04:51:27;;;;;;;24.20;22.08;;;;;;;20.53;53.33;100079.25;5001751;28;99725;-84
2023/06/18 04:53:53;;;;;;;25.02;22.75;;;;;;;20.62;52.98;100070.50;5014405;28;99622;-85
2023/06/18 04:56:19;;;;;;;24.60;22.20;;;;;;;20.74;52.68;100068.69;5033280;28;97245;-84
2023/06/18 04:58:47;;;;;;;26.45;23.27;;;;;;;20.89;52.78;100062.13;5001798;28;96932;-85
2023/06/18 05:01:14;;;;;;;25.52;23.15;;;;;;;21.00;52.86;100077.25;5007777;28;100282;-85
2023/06/18 05:03:40;;;;;;;23.23;21.13;;;;;;;21.16;52.51;100074.19;5002476;28;100158;-85
2023/06/18 05:06:07;;;;;;;24.63;22.27;;;;;;;21.26;52.42;100069.78;5019439;28;97190;-85
2023/06/18 05:08:34;;;;;;;24.58;22.15;;;;;;;21.39;52.05;100080.34;5007195;28;97637;-85
2023/06/18 05:11:00;;;;;;;25.05;22.63;;;;;;;21.51;51.93;100078.47;5011637;28;100501;-85
2023/06/18 05:13:28;;;;;;;22.27;20.25;;;;;;;21.58;52.03;100068.94;5028248;28;100287;-85
2023/06/18 05:15:53;;;;;;;23.70;21.40;;;;;;;21.75;51.85;100073.72;5002919;28;97287;-85
2023/06/18 05:18:19;;;;;;;22.75;20.83;;;;;;;21.83;51.66;100070.41;5013417;28;97282;-85
2023/06/18 05:20:46;;;;;;;23.70;21.60;;;;;;;21.98;51.40;100076.25;5025896;28;99831;-85
2023/06/18 05:23:12;;;;;;;24.23;22.10;;;;;;;22.04;51.43;100073.91;4995377;28;99592;-85
2023/06/18 05:25:38;;;;;;;24.90;22.63;;;;;;;22.23;51.31;100080.38;4997902;28;97060;-85
2023/06/18 05:28:04;;;;;;;25.50;23.10;;;;;;;22.33;51.14;100084.78;5025204;28;97070;-84
2023/06/18 05:30:33;;;;;;;24.27;21.48;;;;;;;22.44;50.94;100078.50;4993893;28;100499;-85
2023/06/18 05:33:00;;;;;;;25.33;23.05;;;;;;;22.63;50.80;100084.91;5006044;28;100579;-85
2023/06/18 05:35:25;;;;;;;22.65;20.65;;;;;;;22.71;50.50;100083.25;5014280;28;96856;-85
2023/06/18 05:37:55;;;;;;;23.98;21.70;;;;;;;22.87;50.25;100100.63;5004536;28;96879;-85
2023/06/18 05:40:20;;;;;;;24.10;21.90;;;;;;;22.98;50.05;100092.50;5007809;28;100861;-85
2023/06/18 05:42:46;;;;;;;24.55;21.98;;;;;;;23.14;49.73;100097.34;4988030;28;100037;-85
2023/06/18 05:45:12;;;;;;;23.40;21.27;;;;;;;23.46;49.30;100094.41;5013867;28;97265;-85
2023/06/18 05:47:41;;;;;;;25.02;22.90;;;;;;;23.88;48.61;100092.31;5001457;28;96956;-85
2023/06/18 05:50:10;;;;;;;22.98;21.15;;;;;;;24.43;47.83;100091.63;4995081;28;100918;-85
2023/06/18 05:52:37;;;;;;;25.40;23.17;;;;;;;25.22;46.24;100091.09;5000328;28;99793;-85
2023/06/18 05:55:06;;;;;;;24.90;22.33;;;;;;;26.40;44.12;100086.31;4998966;28;96816;-85
2023/06/18 05:57:33;;;;;;;24.92;22.90;;;;;;;27.92;41.54;100089.75;4998287;28;97093;-85
2023/06/18 05:59:59;;;;;;;24.70;22.50;;;;;;;29.54;38.20;100092.00;5020747;28;99164;-85
2023/06/18 06:02:24;;;;;;;25.00;22.90;;;;;;;31.85;34.58;100082.78;4999804;28;98642;-85
2023/06/18 06:04:50;;;;;;;23.48;21.45;;;;;;;35.54;29.63;100084.34;5006431;28;96873;-85
2023/06/18 06:07:15;;;;;;;24.40;22.35;;;;;;;38.99;25.14;100094.28;5001135;28;97532;-85
2023/06/18 06:09:41;;;;;;;22.02;20.45;;;;;;;41.55;22.91;100087.81;4997079;28;100161;-83
2023/06/18 06:12:08;;;;;;;22.88;21.02;;;;;;;43.29;21.27;100093.44;5013439;28;100056;-83
2023/06/18 06:14:33;;;;;;;22.45;20.85;;;;;;;44.53;19.83;100092.25;5005591;28;97493;-83
2023/06/18 06:16:59;;;;;;;23.48;21.67;;;;;;;45.61;18.89;100090.50;5013596;28;97129;-82
2023/06/18 06:19:26;;;;;;;22.38;20.67;;;;;;;46.46;18.47;100094.66;5013470;28;100488;-82
2023/06/18 06:21:51;;;;;;;21.35;19.73;;;;;;;47.36;17.48;100092.84;5025874;28;98653;-83
2023/06/18 06:24:17;;;;;;;22.85;21.00;;;;;;;48.16;16.97;100096.53;5009580;28;97211;-82
2023/06/18 06:26:43;;;;;;;23.92;21.92;;;;;;;48.98;16.52;100092.84;5009077;28;97089;-83
2023/06/18 06:29:09;;;;;;;21.55;19.70;;;;;;;49.73;15.78;100077.38;5031836;28;98233;-82
2023/06/18 06:31:34;;;;;;;21.10;19.70;;;;;;;50.22;15.38;100091.41;5010652;28;100227;-82
2023/06/18 06:34:01;;;;;;;22.02;20.50;;;;;;;50.82;14.94;100092.72;5013961;28;97757;-82
2023/06/18 06:36:26;;;;;;;22.05;20.42;;;;;;;51.27;14.69;100087.66;5013553;28;96874;-82
2023/06/18 06:38:53;;;;;;;22.10;20.30;;;;;;;51.62;14.31;100094.03;5013053;28;101057;-82
2023/06/18 06:41:18;;;;;;;22.48;20.90;;;;;;;52.35;13.90;100089.53;5002320;28;100269;-82
2023/06/18 06:43:44;;;;;;;21.98;20.48;;;;;;;52.78;13.68;100096.84;5012006;28;96866;-82
2023/06/18 06:46:32;;;;;;;20.58;19.15;;;;;;;53.44;13.81;100088.53;5002623;28;96871;-82
2023/06/18 06:49:26;;;;;;;22.75;21.00;;;;;;;54.03;13.37;100082.63;4923594;28;97541;-82
2023/06/18 06:52:11;;;;;;;22.48;20.98;;;;;;;54.71;12.49;100075.56;5018375;28;96945;-82
2023/06/18 06:54:37;;;;;;;22.42;20.98;;;;;;;55.00;12.49;100076.41;5019580;28;97370;-82
2023/06/18 06:57:03;;;;;;;22.00;20.50;;;;;;;55.48;12.28;100080.16;5016026;28;97322;-82
2023/06/18 06:59:28;;;;;;;22.92;21.40;;;;;;;55.68;11.72;100078.31;5003437;28;100147;-81
2023/06/18 07:01:54;;;;;;;22.15;20.58;;;;;;;56.06;11.54;100069.25;5022050;28;99177;-82
2023/06/18 07:04:20;;;;;;;22.10;20.70;;;;;;;56.86;11.33;100072.72;5017253;28;96957;-82
2023/06/18 07:06:45;;;;;;;22.20;20.60;;;;;;;57.08;11.32;100068.31;5015057;28;96817;-82
2023/06/18 07:09:11;;;;;;;23.25;21.65;;;;;;;57.53;11.35;100072.44;5024722;28;98608;-82
2023/06/18 07:11:37;;;;;;;20.70;19.20;;;;;;;58.06;11.01;100063.28;5026766;28;98411;-82
2023/06/18 07:14:03;;;;;;;20.92;19.42;;;;;;;58.41;10.83;100058.19;5027186;28;96700;-83
2023/06/18 07:16:28;;;;;;;22.70;21.20;;;;;;;58.94;10.52;100057.25;5029820;28;97471;-83
2023/06/18 07:18:54;;;;;;;23.85;22.27;;;;;;;59.01;9.48;100054.53;5026093;28;98660;-82
2023/06/18 07:21:19;;;;;;;22.85;21.35;;;;;;;59.42;10.29;100056.59;5011149;28;97176;-82
2023/06/18 07:23:45;;;;;;;21.77;20.30;;;;;;;59.92;10.25;100052.19;5013971;28;97050;-82
2023/06/18 07:26:11;;;;;;;19.10;17.90;;;;;;;60.26;9.32;100057.72;5013435;28;97001;-82
2023/06/18 07:28:36;;;;;;;21.90;20.60;;;;;;;60.69;9.76;100049.41;5025627;28;98977;-82
2023/06/18 07:31:02;;;;;;;23.20;21.73;;;;;;;61.02;9.04;100039.84;5013199;28;98443;-82
2023/06/18 07:33:27;;;;;;;21.90;20.50;;;;;;;61.50;8.74;100042.34;5019068;28;98078;-83
2023/06/18 07:35:53;;;;;;;21.35;20.05;;;;;;;61.73;8.80;100044.00;5013545;28;97296;-82
2023/06/18 07:38:18;;;;;;;22.35;21.00;;;;;;;61.88;8.83;100041.97;5015200;28;98999;-81
2023/06/18 07:40:44;;;;;;;22.40;20.83;;;;;;;62.27;8.26;100035.41;5022176;28;98258;-80
2023/06/18 07:43:10;;;;;;;21.23;20.00;;;;;;;62.34;8.54;100030.50;5017568;28;97354;-84
2023/06/18 07:45:36;;;;;;;21.17;19.88;;;;;;;62.58;8.87;100027.97;5016744;28;97727;-84
2023/06/18 07:48:01;;;;;;;21.10;19.60;;;;;;;61.58;8.55;100039.56;5010492;28;99068;-84
2023/06/18 07:50:27;;;;;;;22.23;20.83;;;;;;;62.61;7.77;100032.84;5012306;28;98231;-83
2023/06/18 07:52:52;;;;;;;22.58;21.00;;;;;;;62.86;7.87;100030.69;5015461;28;96648;-85
2023/06/18 07:55:18;;;;;;;21.70;20.42;;;;;;;63.01;8.37;100027.78;5023049;28;97544;-84
2023/06/18 07:57:43;;;;;;;21.17;19.85;;;;;;;51.99;13.04;100032.91;5019187;28;98967;-84
2023/06/18 08:00:10;;;;;;;22.58;20.90;;;;;;;56.51;10.96;100053.00;5020929;28;98420;-83
2023/06/18 08:02:38;;;;;;;23.25;21.83;;;;;;;60.71;8.99;100043.34;5022535;28;97428;-83
2023/06/18 08:05:04;;;;;;;24.00;22.60;;;;;;;61.93;8.54;100039.53;5012041;28;98672;-84
2023/06/18 08:07:30;;;;;;;22.35;20.95;;;;;;;62.18;7.59;100028.13;5012910;28;98850;-85
2023/06/18 08:09:55;;;;;;;22.88;21.48;;;;;;;62.49;8.47;100039.00;5010930;28;98733;-85
2023/06/18 08:12:21;;;;;;;23.25;21.73;;;;;;;62.25;8.13;100035.00;5022323;28;97325;-85
2023/06/18 08:14:47;;;;;;;20.63;19.20;;;;;;;55.86;11.35;100031.75;5030174;28;96825;-83
2023/06/18 08:17:17;;;;;;;19.60;18.40;;;;;;;48.30;14.61;100052.84;5017541;28;99286;-82
2023/06/18 08:19:45;;;;;;;22.50;21.05;;;;;;;55.62;10.81;100054.44;5012169;28;98394;-83
2023/06/18 08:22:19;;;;;;;20.88;19.58;;;;;;;58.21;9.60;100042.53;5015351;28;97122;-83
2023/06/18 08:24:45;;;;;;;20.45;19.25;;;;;;;58.39;10.12;100039.97;5013250;28;97778;-81
2023/06/18 08:27:15;;;;;;;21.80;20.38;;;;;;;57.04;10.22;100034.44;5019125;28;98863;-80
2023/06/18 08:29:40;;;;;;;19.13;18.02;;;;;;;53.54;12.12;100034.81;5016818;28;98833;-80
2023/06/18 08:32:06;;;;;;;20.35;19.10;;;;;;;49.80;13.85;100033.09;5021214;28;97028;-80
2023/06/18 08:34:32;;;;;;;19.58;18.38;;;;;;;47.10;15.24;100034.09;5024541;28;96878;-82
2023/06/18 08:36:58;;;;;;;20.45;19.25;;;;;;;45.58;17.09;100035.66;5024886;28;98828;-83
2023/06/18 08:39:24;;;;;;;18.90;17.80;;;;;;;44.31;17.97;100038.09;5022087;28;98395;-81
2023/06/18 08:41:49;;;;;;;18.27;17.27;;;;;;;43.53;18.61;100041.25;5025277;28;97018;-82
2023/06/18 08:44:15;;;;;;;20.55;19.25;;;;;;;43.04;19.07;100042.59;5028070;28;96956;-82
2023/06/18 08:46:42;;;;;;;19.75;18.45;;;;;;;42.06;20.02;100046.88;5007286;28;98867;-84
2023/06/18 08:49:09;;;;;;;18.55;17.45;;;;;;;41.06;20.49;100034.78;4995880;28;99816;-84
2023/06/18 08:51:37;;;;;;;19.05;17.75;;;;;;;40.41;20.89;100040.06;5016033;28;96720;-84
2023/06/18 08:54:18;;;;;;;18.33;17.25;;;;;;;39.60;21.67;100042.41;5009789;28;97061;-82
2023/06/18 08:56:45;;;;;;;20.05;18.80;;;;;;;39.03;22.70;100045.22;5014253;28;98621;-86
2023/06/18 08:59:11;;;;;;;20.70;19.40;;;;;;;38.37;22.89;100044.66;5021399;28;98463;-86
2023/06/18 09:01:37;;;;;;;21.17;19.67;;;;;;;37.71;23.07;100044.00;5014391;28;97068;-82
2023/06/18 09:04:04;;;;;;;21.88;20.27;;;;;;;37.35;24.19;100052.13;5015836;28;98618;-85
2023/06/18 09:06:30;;;;;;;21.95;20.35;;;;;;;36.96;24.30;100050.78;5017734;28;98707;-90
2023/06/18 09:09:00;;;;;;;20.52;19.23;;;;;;;36.71;24.30;100046.28;4999175;28;100303;-87
2023/06/18 09:11:26;;;;;;;21.00;19.60;;;;;;;36.44;24.66;100044.91;5002514;28;97517;-86
2023/06/18 09:13:51;;;;;;;20.60;19.30;;;;;;;36.15;25.32;100043.75;5024965;28;97042;-89
2023/06/18 09:16:17;;;;;;;20.40;18.85;;;;;;;35.74;25.23;100031.53;5012036;28;99369;-90
2023/06/18 09:18:42;;;;;;;20.83;19.33;;;;;;;35.34;25.58;100046.31;5011361;28;98613;-87
2023/06/18 09:21:08;;;;;;;19.60;18.40;;;;;;;35.35;25.83;100053.44;5010337;28;97752;-86
2023/06/18 09:23:34;;;;;;;20.20;18.80;;;;;;;35.02;26.12;100042.72;4995678;28;96888;-88
2023/06/18 09:26:00;;;;;;;20.30;18.83;;;;;;;34.54;26.63;100058.66;5015478;28;98571;-94
2023/06/18 09:28:27;;;;;;;20.20;18.80;;;;;;;33.89;27.01;100051.25;5020490;28;97540;-93
2023/06/18 09:30:57;;;;;;;20.75;19.35;;;;;;;33.67;27.04;100058.78;5016681;28;97199;-90
2023/06/18 09:33:36;;;;;;;20.90;19.60;;;;;;;33.91;27.40;100053.72;5020836;28;97381;-87
2023/06/18 09:36:06;;;;;;;21.15;19.70;;;;;;;34.07;27.38;100047.06;5014590;28;98975;-70
2023/06/18 09:38:34;;;;;;;20.58;19.27;;;;;;;34.15;27.18;100054.97;5016714;28;98827;-68
2023/06/18 09:41:00;;;;;;;20.15;18.85;;;;;;;32.99;26.06;100052.56;5016095;28;96936;-68
2023/06/18 09:43:52;;;;;;;19.75;18.55;;;;;;;32.96;26.90;100052.94;5002327;28;96932;-70
2023/06/18 09:46:22;;;;;;;19.60;18.40;;;;;;;32.98;27.47;100057.13;5028149;28;98676;-70
2023/06/18 09:48:47;;;;;;;18.77;17.58;;;;;;;32.64;27.98;100061.63;5024065;28;98384;-68
2023/06/18 09:51:20;;;;;;;19.35;18.05;;;;;;;32.71;27.91;100053.50;5001512;28;97266;-69
2023/06/18 09:53:55;;;;;;;20.33;19.02;;;;;;;32.72;28.26;100054.34;5007060;28;96929;-69
2023/06/18 09:56:20;;;;;;;20.40;19.10;;;;;;;32.41;28.65;100048.31;5022032;28;98624;-85
2023/06/18 09:58:48;;;;;;;19.58;18.27;;;;;;;32.46;28.80;100048.59;5020045;28;99083;-86
2023/06/18 10:01:15;;;;;;;20.58;19.27;;;;;;;32.66;28.42;100045.94;4994892;28;96844;-85
2023/06/18 10:03:42;;;;;;;20.48;19.17;;;;;;;32.59;28.44;100044.25;5027601;28;96848;-86
2023/06/18 10:06:12;;;;;;;19.02;17.88;;;;;;;32.77;28.90;100046.41;5024532;28;97948;-85
2023/06/18 10:08:41;;;;;;;20.02;18.73;;;;;;;32.73;28.82;100045.16;5023065;28;98697;-85
2023/06/18 10:11:08;;;;;;;20.40;19.10;;;;;;;32.57;28.60;100049.06;5024871;28;96693;-87
2023/06/18 10:13:46;;;;;;;20.02;18.73;;;;;;;32.56;29.06;100042.78;5022369;28;96830;-73
2023/06/18 10:16:14;;;;;;;19.02;17.90;;;;;;;31.84;30.05;100046.69;5008869;28;98905;-74
2023/06/18 10:18:45;;;;;;;21.00;19.38;;;;;;;31.27;29.77;100044.88;5020653;28;98362;-74
2023/06/18 10:21:11;;;;;;;20.73;19.23;;;;;;;31.34;29.68;100045.81;5006580;28;97710;-73
2023/06/18 10:23:37;;;;;;;19.80;18.45;;;;;;;31.21;29.82;100041.06;5004043;28;96876;-73
2023/06/18 10:26:03;;;;;;;20.20;18.80;;;;;;;30.82;29.79;100049.63;4993893;28;99343;-74
2023/06/18 10:28:29;;;;;;;21.25;19.73;;;;;;;30.90;29.91;100046.81;5029821;28;98446;-74
2023/06/18 10:30:55;;;;;;;19.42;18.23;;;;;;;31.34;29.78;100038.50;4999266;28;96928;-74
2023/06/18 10:33:21;;;;;;;19.40;18.13;;;;;;;31.45;29.51;100041.78;4996039;28;97209;-74
2023/06/18 10:35:47;;;;;;;21.30;19.90;;;;;;;31.37;30.04;100041.91;5014966;28;98950;-74
2023/06/18 10:38:13;;;;;;;20.42;19.02;;;;;;;31.37;30.17;100045.44;5001883;28;98658;-74
2023/06/18 10:40:39;;;;;;;20.60;19.20;;;;;;;31.52;30.12;100038.06;5012032;28;97001;-71
2023/06/18 10:43:09;;;;;;;19.58;18.35;;;;;;;31.41;30.25;100045.91;5017588;28;97374;-75
2023/06/18 10:45:35;;;;;;;20.38;19.17;;;;;;;31.08;30.63;100044.50;5022246;28;98820;-75
2023/06/18 10:48:28;;;;;;;19.95;18.65;;;;;;;30.40;30.30;100029.50;5019465;28;98816;-74
2023/06/18 10:51:13;;;;;;;19.35;17.95;;;;;;;29.76;31.86;100027.28;5006998;28;97312;-74
2023/06/18 10:53:39;;;;;;;20.90;19.50;;;;;;;29.90;31.93;100029.16;5011945;28;97408;-73
2023/06/18 10:56:05;;;;;;;20.42;19.02;;;;;;;30.05;31.68;100036.44;5024510;28;99335;-74
2023/06/18 10:58:34;;;;;;;20.15;18.85;;;;;;;30.35;31.39;100040.06;5021503;28;98220;-70
2023/06/18 11:01:00;;;;;;;21.15;19.48;;;;;;;30.41;30.92;100034.72;5011382;28;96941;-70
2023/06/18 11:03:33;;;;;;;20.63;19.33;;;;;;;30.11;31.62;100038.44;5017176;28;96889;-70
2023/06/18 11:06:01;;;;;;;19.90;18.70;;;;;;;30.27;31.50;100030.16;5015274;28;98832;-71
2023/06/18 11:08:30;;;;;;;20.13;18.73;;;;;;;30.25;30.98;100029.47;5016746;28;98240;-71
2023/06/18 11:11:18;;;;;;;19.85;18.45;;;;;;;30.03;31.33;100028.53;5017864;28;98377;-70